Time;durP1;ratioP1;P1;durP2;ratioP2;P2;SDS_P1;SDS_P2;PMS_P1;PMS_P2;Temp;Humidity;BMP_temperature;BMP_pressure;BME280_temperature;BME280_humidity;BME280_pressure;Samples;Min_cycle;Max_cycle;Signal;HPM_P1;HPM_P2
2022/01/04 00:00:54;;;;;;;1.83;0.30;;;;;;;9.78;100.00;99339.28;8441924;28;20101;-64
2022/01/04 00:04:54;;;;;;;0.55;0.30;;;;;;;9.75;100.00;99335.06;8431858;28;20524;-64
2022/01/04 00:08:58;;;;;;;1.30;0.40;;;;;;;9.71;100.00;99322.91;8461565;28;20044;-64
2022/01/04 00:13:30;;;;;;;0.45;0.30;;;;;;;9.74;100.00;99317.19;8461977;28;20649;-64
2022/01/04 00:17:19;;;;;;;2.60;0.30;;;;;;;9.75;100.00;99307.22;8457259;28;20560;-64
2022/01/04 00:21:19;;;;;;;1.33;0.30;;;;;;;9.71;100.00;99297.78;8437668;28;20047;-64
2022/01/04 00:25:20;;;;;;;1.17;0.40;;;;;;;9.71;100.00;99286.97;8426600;28;20040;-64
2022/01/04 00:29:20;;;;;;;0.52;0.40;;;;;;;9.65;100.00;99272.28;8442695;28;20028;-64
2022/01/04 00:33:21;;;;;;;0.73;0.40;;;;;;;9.61;100.00;99257.44;8428313;28;20042;-64
2022/01/04 00:37:21;;;;;;;1.40;0.63;;;;;;;9.62;100.00;99255.59;8443342;28;20035;-64
2022/01/04 00:41:22;;;;;;;0.68;0.30;;;;;;;9.56;100.00;99253.53;8468259;28;20039;-64
2022/01/04 00:45:22;;;;;;;2.35;0.30;;;;;;;9.55;100.00;99243.78;8454547;28;20166;-64
2022/01/04 00:49:22;;;;;;;0.50;0.35;;;;;;;9.54;100.00;99239.38;8454359;28;20039;-64
2022/01/04 00:53:23;;;;;;;1.20;0.30;;;;;;;9.55;100.00;99235.69;8461170;28;20524;-64
2022/01/04 00:57:23;;;;;;;1.25;0.50;;;;;;;9.46;100.00;99233.97;8461152;28;20032;-64
2022/01/04 01:01:25;;;;;;;1.05;0.40;;;;;;;9.47;100.00;99216.78;8460185;28;20039;-64
2022/01/04 01:05:26;;;;;;;0.70;0.50;;;;;;;9.42;100.00;99219.09;8460095;28;20049;-64
2022/01/04 01:09:30;;;;;;;0.57;0.30;;;;;;;9.39;100.00;99205.94;8449654;28;20024;-64
2022/01/04 01:13:31;;;;;;;1.17;0.40;;;;;;;9.39;100.00;99203.25;8438416;28;20032;-64
2022/01/04 01:17:32;;;;;;;1.08;0.65;;;;;;;9.38;100.00;99207.81;8453683;27;20050;-64
2022/01/04 01:21:33;;;;;;;1.65;0.40;;;;;;;9.33;100.00;99191.28;8472535;27;20035;-64
2022/01/04 01:25:34;;;;;;;3.65;0.45;;;;;;;9.31;100.00;99179.84;8462793;28;20040;-64
2022/01/04 01:29:34;;;;;;;1.48;0.45;;;;;;;9.33;100.00;99176.97;8462871;27;20039;-64
2022/01/04 01:33:34;;;;;;;1.83;0.50;;;;;;;9.26;100.00;99167.84;8460540;27;20047;-64
2022/01/04 01:37:35;;;;;;;4.95;0.60;;;;;;;9.27;100.00;99164.16;8453295;27;20036;-64
2022/01/04 01:41:35;;;;;;;1.85;0.35;;;;;;;9.24;100.00;99161.78;8432509;28;20503;-64
2022/01/04 01:45:37;;;;;;;0.63;0.40;;;;;;;9.19;100.00;99151.50;8431562;28;20040;-64
2022/01/04 01:49:37;;;;;;;0.80;0.43;;;;;;;9.23;100.00;99154.69;8431015;28;20043;-64
2022/01/04 01:53:38;;;;;;;1.17;0.30;;;;;;;9.23;100.00;99143.91;8432866;28;20040;-64
2022/01/04 01:57:39;;;;;;;1.17;0.40;;;;;;;9.23;100.00;99143.91;8442212;27;20148;-64
2022/01/04 02:01:39;;;;;;;1.90;0.85;;;;;;;9.19;100.00;99142.56;8439333;28;20458;-64
2022/01/04 02:05:40;;;;;;;0.50;0.40;;;;;;;9.21;100.00;99140.53;8427346;28;20044;-64
2022/01/04 02:09:44;;;;;;;1.08;0.50;;;;;;;9.19;100.00;99134.47;8439569;27;20040;-64
2022/01/04 02:13:44;;;;;;;1.00;0.50;;;;;;;9.16;100.00;99121.31;8427687;28;20032;-64
2022/01/04 02:17:45;;;;;;;3.15;0.35;;;;;;;9.18;100.00;99113.91;8460563;27;20038;-64
2022/01/04 02:21:46;;;;;;;3.78;0.40;;;;;;;9.12;100.00;99104.63;8461207;27;20043;-64
2022/01/04 02:25:48;;;;;;;2.42;0.40;;;;;;;9.14;100.00;99099.06;8460262;27;20047;-64
2022/01/04 02:29:49;;;;;;;1.98;0.35;;;;;;;9.15;100.00;99098.06;8459338;28;20031;-64
2022/01/04 02:33:49;;;;;;;2.15;0.50;;;;;;;9.12;100.00;99099.22;8460384;28;20031;-64
2022/01/04 02:37:54;;;;;;;0.82;0.50;;;;;;;9.07;100.00;99087.25;8460641;27;20035;-64
2022/01/04 02:41:54;;;;;;;1.27;0.50;;;;;;;9.06;100.00;99078.31;8437704;27;20410;-64
2022/01/04 02:45:55;;;;;;;5.95;0.88;;;;;;;9.12;100.00;99088.44;8444552;28;20051;-64
2022/01/04 02:49:56;;;;;;;1.35;0.52;;;;;;;9.16;100.00;99091.66;8420547;28;20070;-64
2022/01/04 02:53:56;;;;;;;1.70;0.40;;;;;;;9.13;100.00;99092.00;8450772;28;20035;-64
2022/01/04 02:57:57;;;;;;;1.15;0.43;;;;;;;9.14;100.00;99090.97;8459981;28;20386;-64
2022/01/04 03:01:57;;;;;;;1.83;0.60;;;;;;;9.02;100.00;99092.28;8447863;28;20044;-64
2022/01/04 03:05:58;;;;;;;1.85;0.52;;;;;;;8.96;100.00;99076.78;8417243;28;20028;-64
2022/01/04 03:09:58;;;;;;;1.05;0.40;;;;;;;8.91;100.00;99073.75;8428613;28;20499;-64
2022/01/04 03:13:59;;;;;;;0.85;0.40;;;;;;;8.91;100.00;99068.38;8430745;28;20080;-64
2022/01/04 03:18:00;;;;;;;1.98;0.80;;;;;;;9.00;100.00;99062.81;8463081;28;20402;-64
2022/01/04 03:22:00;;;;;;;1.10;0.88;;;;;;;9.04;100.00;99047.16;8461678;28;20036;-64
2022/01/04 03:26:00;;;;;;;1.15;0.60;;;;;;;9.08;100.00;99032.34;8461804;28;20112;-64
2022/01/04 03:30:01;;;;;;;3.85;0.80;;;;;;;9.00;100.00;99022.38;8460412;28;20045;-64
2022/01/04 03:34:02;;;;;;;1.23;0.70;;;;;;;8.99;100.00;99004.53;8460515;28;20164;-64
2022/01/04 03:38:03;;;;;;;0.93;0.60;;;;;;;8.92;100.00;98990.06;8452612;28;20399;-64
2022/01/04 03:42:03;;;;;;;2.70;0.82;;;;;;;8.92;100.00;98983.81;8437107;28;20134;-64
2022/01/04 03:46:06;;;;;;;1.88;0.80;;;;;;;8.88;100.00;98977.91;8426246;28;20044;-64
2022/01/04 03:50:06;;;;;;;1.95;0.60;;;;;;;8.87;100.00;98972.69;8441862;28;20031;-63
2022/01/04 03:54:07;;;;;;;3.47;0.95;;;;;;;8.85;100.00;98964.81;8430212;28;20491;-64
2022/01/04 03:58:08;;;;;;;4.13;0.55;;;;;;;8.83;100.00;98952.47;8439447;28;20043;-64
2022/01/04 04:02:08;;;;;;;2.47;0.68;;;;;;;8.81;100.00;98944.56;8457829;28;20113;-64
2022/01/04 04:06:08;;;;;;;4.55;0.70;;;;;;;8.81;100.00;98933.78;8457758;28;20031;-63
2022/01/04 04:10:10;;;;;;;5.53;0.85;;;;;;;8.77;100.00;98923.53;8458358;28;20032;-63
2022/01/04 04:14:10;;;;;;;1.10;0.60;;;;;;;8.77;100.00;98915.44;8454242;28;20044;-63
2022/01/04 04:18:11;;;;;;;2.50;1.08;;;;;;;8.75;100.00;98901.31;8427854;28;20115;-63
2022/01/04 04:22:11;;;;;;;1.58;0.90;;;;;;;8.72;100.00;98890.88;8412711;28;20047;-63
2022/01/04 04:26:12;;;;;;;2.83;1.00;;;;;;;8.71;100.00;98889.16;8432137;28;20347;-63
2022/01/04 04:30:12;;;;;;;2.75;0.77;;;;;;;8.67;100.00;98882.44;8425199;28;20036;-63
2022/01/04 04:34:13;;;;;;;2.78;0.63;;;;;;;8.79;100.00;98881.09;8432666;28;20398;-63
2022/01/04 04:38:13;;;;;;;2.15;0.75;;;;;;;8.82;100.00;98870.84;8446599;28;20039;-63
2022/01/04 04:42:14;;;;;;;2.42;0.90;;;;;;;8.80;100.00;98869.28;8428747;28;20479;-63
2022/01/04 04:46:14;;;;;;;4.82;1.23;;;;;;;8.75;100.00;98863.59;8440236;28;20456;-63
2022/01/04 04:50:15;;;;;;;4.93;1.02;;;;;;;8.71;100.00;98855.00;8463900;28;20487;-63
2022/01/04 04:54:15;;;;;;;14.48;2.05;;;;;;;8.74;100.00;98851.97;8463878;28;20081;-63
2022/01/04 04:58:16;;;;;;;5.70;1.30;;;;;;;8.67;100.00;98850.13;8455616;28;20047;-63
2022/01/04 05:02:17;;;;;;;6.07;1.70;;;;;;;8.62;100.00;98842.56;8443498;28;20036;-63
2022/01/04 05:06:17;;;;;;;2.38;1.20;;;;;;;8.61;100.00;98840.03;8441033;28;20054;-63
2022/01/04 05:10:17;;;;;;;2.25;0.80;;;;;;;8.59;100.00;98825.88;8442499;28;20057;-63
2022/01/04 05:14:19;;;;;;;2.78;1.10;;;;;;;8.61;100.00;98815.78;8433858;28;20028;-63
2022/01/04 05:18:19;;;;;;;1.85;1.00;;;;;;;8.60;100.00;98822.19;8430211;28;20032;-63
2022/01/04 05:22:19;;;;;;;3.80;0.85;;;;;;;8.72;100.00;98827.03;8430773;28;20175;-63
2022/01/04 05:26:21;;;;;;;2.70;0.80;;;;;;;8.71;100.00;98827.22;8430497;28;20097;-63
2022/01/04 05:30:21;;;;;;;1.80;1.10;;;;;;;8.72;100.00;98824.34;8454576;28;20032;-63
2022/01/04 05:34:21;;;;;;;2.53;1.50;;;;;;;8.69;100.00;98815.78;8445333;28;20040;-63
2022/01/04 05:38:22;;;;;;;3.13;1.40;;;;;;;8.65;100.00;98806.34;8443302;28;20116;-63
2022/01/04 05:42:22;;;;;;;6.03;1.40;;;;;;;8.59;100.00;98802.50;8453614;28;20033;-63
2022/01/04 05:46:23;;;;;;;4.55;1.40;;;;;;;8.62;100.00;98814.75;8444660;28;20042;-63
2022/01/04 05:50:24;;;;;;;3.10;1.35;;;;;;;8.62;100.00;98809.38;8439014;28;20468;-63
2022/01/04 05:54:25;;;;;;;1.70;1.30;;;;;;;8.62;100.00;98799.44;8450772;28;20043;-63
2022/01/04 05:58:25;;;;;;;2.28;1.05;;;;;;;8.65;100.00;98806.34;8457760;28;20530;-63
2022/01/04 06:02:26;;;;;;;4.95;1.30;;;;;;;8.67;100.00;98794.41;8433621;28;20161;-63
2022/01/04 06:06:26;;;;;;;2.10;1.23;;;;;;;8.67;100.00;98805.19;8450950;28;20035;-63
2022/01/04 06:10:26;;;;;;;2.88;1.33;;;;;;;8.70;100.00;98788.69;8463266;28;20036;-63
2022/01/04 06:14:58;;;;;;;2.55;1.10;;;;;;;8.65;100.00;98774.03;8460708;28;20036;-63
2022/01/04 06:18:47;;;;;;;2.45;1.15;;;;;;;8.62;100.00;98777.06;8453789;28;20445;-63
2022/01/04 06:22:49;;;;;;;3.33;1.45;;;;;;;8.65;100.00;98787.50;8412439;28;20032;-63
2022/01/04 06:26:49;;;;;;;2.08;1.50;;;;;;;8.68;100.00;98782.63;8436190;28;20560;-63
2022/01/04 06:30:50;;;;;;;6.32;1.88;;;;;;;8.64;100.00;98775.03;8428649;28;20415;-63
2022/01/04 06:34:51;;;;;;;3.17;2.13;;;;;;;8.63;100.00;98774.19;8432320;28;20387;-63
2022/01/04 06:38:51;;;;;;;6.28;3.38;;;;;;;8.63;100.00;98762.59;8436189;28;20043;-63
2022/01/04 06:42:52;;;;;;;5.38;2.67;;;;;;;8.63;100.00;98757.22;8433062;28;20117;-63
2022/01/04 06:46:52;;;;;;;3.83;2.70;;;;;;;8.59;100.00;98758.53;8436601;28;20115;-63
2022/01/04 06:50:53;;;;;;;4.88;2.78;;;;;;;8.57;100.00;98757.91;8428013;28;20027;-63
2022/01/04 06:54:53;;;;;;;3.55;2.53;;;;;;;8.59;100.00;98745.94;8434559;28;20062;-63
2022/01/04 06:58:54;;;;;;;7.47;3.58;;;;;;;8.58;100.00;98738.88;8426506;28;20040;-63
2022/01/04 07:02:54;;;;;;;7.72;4.72;;;;;;;8.58;100.00;98736.19;8424240;28;20039;-63
2022/01/04 07:06:54;;;;;;;6.07;3.72;;;;;;;8.61;100.00;98737.69;8420877;28;20028;-63
2022/01/04 07:10:55;;;;;;;6.60;3.28;;;;;;;8.61;100.00;98721.53;8409011;28;20040;-63
2022/01/04 07:14:55;;;;;;;5.22;4.03;;;;;;;8.59;100.00;98727.06;8425882;28;20058;-63
2022/01/04 07:18:56;;;;;;;6.30;3.80;;;;;;;8.61;100.00;98722.38;8428863;28;20556;-63
2022/01/04 07:22:56;;;;;;;6.35;4.20;;;;;;;8.64;100.00;98727.41;8447558;28;20066;-63
2022/01/04 07:26:56;;;;;;;7.13;4.30;;;;;;;8.72;100.00;98718.47;8438918;28;20118;-63
2022/01/04 07:30:57;;;;;;;9.25;4.65;;;;;;;8.80;100.00;98727.38;8444321;28;20395;-63
2022/01/04 07:34:57;;;;;;;9.32;5.15;;;;;;;8.92;100.00;98741.28;8432888;28;20032;-63
2022/01/04 07:38:58;;;;;;;7.82;5.32;;;;;;;8.80;100.00;98742.66;8413130;28;20500;-64
2022/01/04 07:43:00;;;;;;;8.73;5.43;;;;;;;8.79;100.00;98738.31;8440410;28;20040;-64
2022/01/04 07:47:00;;;;;;;11.68;6.18;;;;;;;8.75;100.00;98732.41;8432867;28;20036;-64
2022/01/04 07:51:01;;;;;;;9.43;6.22;;;;;;;8.67;100.00;98737.00;8435156;28;20037;-64
2022/01/04 07:55:04;;;;;;;9.52;5.75;;;;;;;8.65;100.00;98728.22;8433351;28;20039;-64
2022/01/04 07:59:05;;;;;;;16.92;9.82;;;;;;;8.63;100.00;98712.25;8427369;28;20075;-64
2022/01/04 08:03:07;;;;;;;16.02;8.50;;;;;;;8.67;100.00;98726.22;8426921;28;20043;-64
2022/01/04 08:07:07;;;;;;;27.50;13.63;;;;;;;8.73;100.00;98726.38;8429959;28;20047;-64
2022/01/04 08:11:08;;;;;;;33.75;16.10;;;;;;;8.65;100.00;98723.69;8441563;28;20141;-64
2022/01/04 08:15:10;;;;;;;35.72;17.55;;;;;;;8.66;100.00;98711.91;8431622;28;20150;-64
2022/01/04 08:19:10;;;;;;;18.50;9.07;;;;;;;8.60;100.00;98715.28;8437625;28;20033;-64
2022/01/04 08:23:11;;;;;;;16.38;6.60;;;;;;;8.64;100.00;98718.47;8426580;28;20044;-64
2022/01/04 08:27:11;;;;;;;8.77;6.05;;;;;;;8.60;100.00;98711.78;8437324;28;20059;-64
2022/01/04 08:31:11;;;;;;;8.48;5.82;;;;;;;8.63;100.00;98709.56;8438184;28;20431;-64
2022/01/04 08:35:12;;;;;;;7.28;5.03;;;;;;;8.63;100.00;98697.97;8422453;28;20055;-64
2022/01/04 08:39:14;;;;;;;11.90;5.85;;;;;;;8.66;100.00;98689.53;8431916;28;20475;-64
2022/01/04 08:43:16;;;;;;;8.13;5.25;;;;;;;8.70;100.00;98694.41;8453210;28;20044;-64
2022/01/04 08:47:17;;;;;;;4.95;3.70;;;;;;;8.73;100.00;98693.22;8446230;28;20398;-64
2022/01/04 08:51:17;;;;;;;6.55;4.63;;;;;;;8.81;100.00;98703.97;8436688;28;20074;-64
2022/01/04 08:55:18;;;;;;;13.52;6.20;;;;;;;8.83;100.00;98704.63;8428631;28;20079;-64
2022/01/04 08:59:18;;;;;;;12.68;5.55;;;;;;;8.98;100.00;98721.72;8447388;28;20046;-64
2022/01/04 09:03:19;;;;;;;5.90;4.47;;;;;;;8.98;100.00;98735.22;8435995;28;20457;-64
2022/01/04 09:07:19;;;;;;;8.55;4.75;;;;;;;8.91;100.00;98728.84;8426160;28;20054;-64
2022/01/04 09:11:21;;;;;;;7.63;4.40;;;;;;;8.93;100.00;98721.41;8425781;28;20130;-64
2022/01/04 09:19:49;;;;;;;5.93;4.28;;;;;;;9.00;100.00;98734.00;8327425;27;21211;-63
2022/01/04 09:23:53;;;;;;;5.90;4.35;;;;;;;9.03;100.00;98730.16;8319394;28;20440;-63
2022/01/04 09:27:54;;;;;;;7.82;4.50;;;;;;;9.11;100.00;98727.41;8311707;28;20064;-64
2022/01/04 09:31:55;;;;;;;5.93;4.00;;;;;;;9.18;100.00;98733.78;8319475;28;20051;-64
2022/01/04 09:35:56;;;;;;;6.32;3.60;;;;;;;9.12;100.00;98737.19;8316663;28;20080;-64
2022/01/04 09:39:58;;;;;;;5.32;3.80;;;;;;;9.11;100.00;98730.09;8318058;28;20048;-64
2022/01/04 09:43:58;;;;;;;5.47;4.30;;;;;;;9.18;100.00;98734.63;8328757;28;20095;-64
2022/01/04 09:47:59;;;;;;;6.53;4.72;;;;;;;9.14;100.00;98718.97;8326678;28;20041;-64
2022/01/04 09:52:02;;;;;;;5.93;3.78;;;;;;;9.07;100.00;98713.44;8323075;28;20855;-64
2022/01/04 09:56:03;;;;;;;6.68;4.40;;;;;;;9.08;100.00;98720.50;8309184;28;20141;-64
2022/01/04 10:00:06;;;;;;;5.03;4.53;;;;;;;9.13;100.00;98736.16;8314223;28;20064;-64
2022/01/04 10:04:09;;;;;;;7.38;5.38;;;;;;;9.16;100.00;98723.19;8319101;28;20041;-64
2022/01/04 10:08:11;;;;;;;9.73;5.55;;;;;;;9.19;100.00;98695.03;8320179;28;20046;-64
2022/01/04 10:12:14;;;;;;;7.07;4.85;;;;;;;9.21;100.00;98703.78;8311807;28;20081;-64
2022/01/04 10:16:16;;;;;;;8.75;4.95;;;;;;;9.30;100.00;98711.63;8307675;28;20085;-64
2022/01/04 10:20:18;;;;;;;5.57;4.03;;;;;;;9.18;100.00;98721.13;8312412;28;20037;-64
2022/01/04 10:24:19;;;;;;;7.22;4.47;;;;;;;9.28;100.00;98734.41;8309493;28;20048;-64
2022/01/04 10:28:30;;;;;;;7.38;4.65;;;;;;;9.25;100.00;98749.09;8308790;28;20045;-64
2022/01/04 10:32:41;;;;;;;7.25;5.25;;;;;;;9.26;100.00;98750.75;8293917;28;20627;-64
2022/01/04 10:36:42;;;;;;;8.25;5.22;;;;;;;9.33;100.00;98750.91;8295653;28;20504;-64
2022/01/04 10:40:46;;;;;;;15.98;8.52;;;;;;;9.38;100.00;98751.22;8288422;28;20419;-64
2022/01/04 10:44:47;;;;;;;8.02;3.40;;;;;;;9.33;100.00;98753.59;8271309;28;20430;-64
2022/01/04 10:48:50;;;;;;;2.33;1.33;;;;;;;9.34;100.00;98731.84;8290734;28;20041;-64
2022/01/04 10:52:52;;;;;;;3.63;1.17;;;;;;;9.41;100.00;98721.19;8296609;28;20444;-64
2022/01/04 10:57:04;;;;;;;4.40;1.00;;;;;;;9.43;100.00;98735.34;8285899;28;20062;-64
2022/01/04 11:01:09;;;;;;;6.05;1.42;;;;;;;9.39;100.00;98739.38;8290802;28;20038;-64
2022/01/04 11:05:12;;;;;;;2.70;1.23;;;;;;;9.36;100.00;98728.97;8295204;28;20049;-64
2022/01/04 11:09:12;;;;;;;2.35;1.20;;;;;;;9.34;100.00;98720.22;8293191;28;20084;-63
2022/01/04 11:13:13;;;;;;;2.40;1.67;;;;;;;9.35;100.00;98713.81;8298448;28;20041;-64
2022/01/04 11:17:13;;;;;;;3.55;1.60;;;;;;;9.40;100.00;98716.81;8294739;28;20103;-64
2022/01/04 11:21:14;;;;;;;3.42;1.60;;;;;;;9.40;100.00;98735.69;8285613;28;20097;-64
2022/01/04 11:25:19;;;;;;;3.80;1.73;;;;;;;9.41;100.00;98735.53;8292269;28;20446;-64
2022/01/04 11:29:23;;;;;;;6.05;3.95;;;;;;;9.39;100.00;98740.25;8296332;28;20489;-64
2022/01/04 11:33:30;;;;;;;5.60;4.43;;;;;;;9.42;100.00;98725.56;8286529;28;20092;-64
2022/01/04 11:37:31;;;;;;;7.97;4.15;;;;;;;9.45;100.00;98727.91;8290867;28;20076;-64
2022/01/04 11:45:48;;;;;;;7.63;4.00;;;;;;;9.53;100.00;98725.16;8306054;27;20386;-64
2022/01/04 11:50:13;;;;;;;4.47;2.03;;;;;;;9.55;100.00;98729.34;8313995;28;20029;-64
2022/01/04 11:54:18;;;;;;;7.13;3.90;;;;;;;9.54;100.00;98727.69;8322691;28;20045;-64
2022/01/04 11:58:24;;;;;;;3.88;2.67;;;;;;;9.68;100.00;98718.84;8320736;28;20451;-64
2022/01/04 12:02:32;;;;;;;4.43;3.08;;;;;;;9.84;100.00;98707.06;8315443;28;20057;-64
2022/01/04 12:06:42;;;;;;;6.78;2.83;;;;;;;9.90;100.00;98731.50;8328249;28;20114;-64
2022/01/04 12:10:42;;;;;;;4.75;3.10;;;;;;;9.90;100.00;98723.41;8323104;28;20075;-64
2022/01/04 12:14:42;;;;;;;4.80;3.20;;;;;;;9.94;100.00;98727.41;8331332;28;20182;-64
2022/01/04 12:22:55;;;;;;;5.57;3.90;;;;;;;9.96;100.00;98716.44;8321915;27;20401;-64
2022/01/04 12:27:13;;;;;;;8.73;4.25;;;;;;;10.02;100.00;98710.31;8320245;28;20084;-64
2022/01/04 12:35:46;;;;;;;5.53;4.45;;;;;;;10.03;100.00;98701.19;8391554;27;20482;-64
2022/01/04 12:39:49;;;;;;;6.60;4.93;;;;;;;10.08;100.00;98704.22;8371534;28;20052;-64
2022/01/04 12:43:50;;;;;;;6.32;5.65;;;;;;;10.12;100.00;98704.72;8388046;28;20036;-64
2022/01/04 12:47:51;;;;;;;7.57;6.03;;;;;;;10.12;100.00;98694.72;8383824;28;20063;-64
2022/01/04 12:51:54;;;;;;;7.93;6.53;;;;;;;10.07;100.00;98707.94;8390185;28;20044;-64
2022/01/04 12:56:02;;;;;;;8.18;6.38;;;;;;;10.09;100.00;98700.50;8356060;28;20663;-64
2022/01/04 13:00:05;;;;;;;9.38;7.30;;;;;;;10.11;100.00;98670.63;8386291;28;20730;-64
2022/01/04 13:04:20;;;;;;;13.48;9.05;;;;;;;10.10;100.00;98667.09;8389760;28;20040;-64
2022/01/04 13:08:27;;;;;;;12.02;8.75;;;;;;;10.13;100.00;98674.84;8387732;28;20280;-64
2022/01/04 13:12:30;;;;;;;15.23;9.68;;;;;;;10.20;100.00;98656.88;8351115;28;20135;-64
2022/01/04 13:16:34;;;;;;;15.50;9.18;;;;;;;10.27;100.00;98660.50;8359897;28;20569;-64
2022/01/04 13:20:35;;;;;;;15.10;9.70;;;;;;;10.24;100.00;98674.38;8358192;28;20056;-64
2022/01/04 13:24:44;;;;;;;13.45;9.25;;;;;;;10.26;100.00;98664.22;8372878;28;20037;-64
2022/01/04 13:28:53;;;;;;;13.80;9.43;;;;;;;10.26;100.00;98674.19;8367061;28;20041;-64
2022/01/04 13:32:59;;;;;;;13.98;9.45;;;;;;;10.23;100.00;98675.41;8364309;28;20040;-64
2022/01/04 13:37:00;;;;;;;14.80;8.90;;;;;;;10.23;100.00;98694.31;8352638;28;20587;-64
2022/01/04 13:41:01;;;;;;;15.23;8.52;;;;;;;10.26;100.00;98707.44;8356878;28;20076;-65
2022/01/04 13:45:08;;;;;;;16.00;8.13;;;;;;;10.27;100.00;98714.50;8345662;28;20132;-64
2022/01/04 13:49:08;;;;;;;15.15;7.78;;;;;;;10.29;100.00;98712.47;8332270;28;20064;-64
2022/01/04 13:53:18;;;;;;;14.32;7.22;;;;;;;10.29;100.00;98708.94;8340156;28;20048;-64
2022/01/04 13:57:18;;;;;;;9.52;6.35;;;;;;;10.27;100.00;98709.09;8335619;28;20041;-64
2022/01/04 14:01:38;;;;;;;11.52;6.78;;;;;;;10.31;100.00;98707.72;8342663;28;20042;-64
2022/01/04 14:05:38;;;;;;;10.38;6.07;;;;;;;10.30;100.00;98714.16;8339718;28;20044;-64
2022/01/04 14:09:44;;;;;;;9.27;5.70;;;;;;;10.28;100.00;98716.19;8336012;28;20136;-64
2022/01/04 14:13:46;;;;;;;15.07;6.50;;;;;;;10.33;100.00;98708.38;8326654;28;20048;-64
2022/01/04 14:17:47;;;;;;;13.27;5.88;;;;;;;10.38;100.00;98692.47;8340696;28;20415;-64
2022/01/04 14:22:02;;;;;;;8.77;5.57;;;;;;;10.36;100.00;98693.66;8336007;28;20037;-64
2022/01/04 14:26:05;;;;;;;13.20;5.50;;;;;;;10.38;100.00;98695.19;8331096;28;20334;-64
2022/01/04 14:30:11;;;;;;;18.80;6.30;;;;;;;10.34;100.00;98698.41;8324592;28;20048;-65
2022/01/04 14:34:11;;;;;;;11.60;5.97;;;;;;;10.30;100.00;98697.09;8315994;28;20169;-65
2022/01/04 14:38:12;;;;;;;15.05;5.72;;;;;;;10.37;100.00;98704.28;8331062;28;20040;-65
2022/01/04 14:42:12;;;;;;;12.30;6.03;;;;;;;10.35;100.00;98700.94;8324381;28;20045;-65
2022/01/04 14:46:13;;;;;;;12.20;6.93;;;;;;;10.37;100.00;98706.97;8324722;28;20417;-65
2022/01/04 14:50:14;;;;;;;10.73;5.40;;;;;;;10.40;100.00;98717.41;8335336;28;20045;-65
2022/01/04 14:54:15;;;;;;;11.27;6.43;;;;;;;10.41;100.00;98711.00;8335970;28;20049;-65
2022/01/04 14:58:15;;;;;;;14.35;6.00;;;;;;;10.39;100.00;98713.06;8334949;28;20036;-65
2022/01/04 15:02:16;;;;;;;9.60;5.15;;;;;;;10.32;100.00;98725.63;8336332;28;20791;-64
2022/01/04 15:06:16;;;;;;;11.82;5.18;;;;;;;10.18;100.00;98730.97;8349479;28;20041;-64
2022/01/04 15:10:16;;;;;;;9.73;5.88;;;;;;;10.12;100.00;98729.00;8329736;28;20564;-64
2022/01/04 15:14:17;;;;;;;11.55;5.82;;;;;;;10.13;100.00;98734.22;8329330;28;20064;-64
2022/01/04 15:18:18;;;;;;;12.00;5.90;;;;;;;10.10;100.00;98731.88;8336163;28;20087;-64
2022/01/04 15:22:19;;;;;;;10.02;5.32;;;;;;;10.10;100.00;98739.13;8348119;28;20036;-64
2022/01/04 15:26:20;;;;;;;7.78;4.47;;;;;;;10.06;100.00;98745.91;8328347;28;20047;-64
2022/01/04 15:30:20;;;;;;;13.88;5.43;;;;;;;10.04;100.00;98746.06;8332205;28;20439;-64
2022/01/04 15:34:21;;;;;;;10.80;4.65;;;;;;;10.03;100.00;98744.38;8342578;28;20067;-64
2022/01/04 15:38:21;;;;;;;7.90;4.90;;;;;;;9.95;100.00;98745.28;8350786;28;20530;-64
2022/01/04 15:42:23;;;;;;;9.90;4.65;;;;;;;9.90;100.00;98745.00;8324460;28;20047;-64
2022/01/04 15:46:25;;;;;;;6.30;4.25;;;;;;;9.90;100.00;98749.53;8318160;28;20421;-64
2022/01/04 15:50:26;;;;;;;9.98;4.30;;;;;;;9.87;100.00;98761.53;8337564;28;20511;-64
2022/01/04 15:54:27;;;;;;;8.05;4.85;;;;;;;9.76;100.00;98769.22;8332805;28;20045;-64
2022/01/04 15:58:27;;;;;;;8.88;4.78;;;;;;;9.70;100.00;98767.22;8329416;28;20036;-64
2022/01/04 16:02:27;;;;;;;11.57;5.82;;;;;;;9.64;100.00;98770.63;8325520;28;20045;-64
2022/01/04 16:06:29;;;;;;;12.82;5.63;;;;;;;9.60;100.00;98796.25;8331948;28;20501;-64
2022/01/04 16:10:29;;;;;;;9.18;5.40;;;;;;;9.56;100.00;98800.34;8331415;28;20436;-64
2022/01/04 16:14:30;;;;;;;9.60;5.35;;;;;;;9.53;100.00;98806.09;8334712;28;20044;-64
2022/01/04 16:22:51;;;;;;;9.45;6.22;;;;;;;9.54;100.00;98796.97;8327020;28;20131;-64
2022/01/04 16:26:55;;;;;;;12.90;5.78;;;;;;;9.57;100.00;98796.63;8334012;28;20570;-64
2022/01/04 16:30:55;;;;;;;5.67;3.20;;;;;;;9.59;100.00;98805.38;8338819;28;20037;-64
2022/01/04 16:34:57;;;;;;;4.90;2.50;;;;;;;9.53;100.00;98798.00;8326255;28;20050;-64
2022/01/04 16:38:58;;;;;;;5.63;2.00;;;;;;;9.50;100.00;98817.22;8346237;28;20042;-64
2022/01/04 16:42:59;;;;;;;3.78;1.40;;;;;;;9.25;100.00;98829.13;8331448;28;20116;-64
2022/01/04 16:47:00;;;;;;;1.10;0.77;;;;;;;8.75;100.00;98825.88;8330531;28;20060;-64
2022/01/04 16:51:00;;;;;;;1.42;0.80;;;;;;;8.61;100.00;98827.41;8338417;28;20610;-64
2022/01/04 16:55:02;;;;;;;3.15;1.33;;;;;;;8.42;100.00;98824.22;8332875;28;20041;-64
2022/01/04 16:59:03;;;;;;;1.92;1.52;;;;;;;8.25;100.00;98811.75;8329207;28;20046;-64
2022/01/04 17:03:04;;;;;;;5.97;3.33;;;;;;;8.09;100.00;98808.00;8335038;28;20525;-64
2022/01/04 17:07:04;;;;;;;3.78;0.98;;;;;;;8.22;100.00;98812.94;8329258;28;20385;-64
2022/01/04 17:11:11;;;;;;;2.08;0.77;;;;;;;8.22;100.00;98817.44;8330934;28;20159;-64
2022/01/04 17:15:42;;;;;;;1.83;0.77;;;;;;;8.16;100.00;98818.94;8334980;28;20580;-64
2022/01/04 17:19:32;;;;;;;3.58;0.90;;;;;;;8.19;100.00;98818.63;8338464;28;20041;-64
2022/01/04 17:23:34;;;;;;;1.45;0.95;;;;;;;8.18;100.00;98816.09;8357564;28;20390;-65
2022/01/04 17:27:37;;;;;;;3.80;1.08;;;;;;;8.16;100.00;98807.34;8350691;28;20037;-64
2022/01/04 17:31:38;;;;;;;5.37;0.97;;;;;;;8.17;100.00;98792.88;8341345;28;20045;-64
2022/01/04 17:35:39;;;;;;;2.60;0.90;;;;;;;8.17;100.00;98804.47;8340638;28;20059;-64
2022/01/04 17:39:39;;;;;;;4.25;1.23;;;;;;;8.19;100.00;98786.31;8340747;28;20525;-64
2022/01/04 17:43:39;;;;;;;3.40;1.33;;;;;;;8.20;100.00;98776.41;8342213;28;20060;-64
2022/01/04 17:47:40;;;;;;;2.63;1.05;;;;;;;8.21;100.00;98783.47;8340074;28;20041;-64
2022/01/04 17:51:40;;;;;;;1.40;0.85;;;;;;;8.08;100.00;98784.78;8342368;28;20077;-64
2022/01/04 17:55:41;;;;;;;1.83;0.80;;;;;;;8.15;100.00;98789.50;8334020;28;20037;-64
2022/01/04 17:59:44;;;;;;;5.05;0.77;;;;;;;8.15;100.00;98800.28;8337112;28;20223;-64
2022/01/04 18:03:45;;;;;;;3.75;0.93;;;;;;;8.35;100.00;98796.28;8326344;28;20056;-64
2022/01/04 18:07:45;;;;;;;5.85;2.05;;;;;;;8.41;100.00;98800.97;8335292;28;20033;-64
2022/01/04 18:11:46;;;;;;;3.03;2.15;;;;;;;8.30;100.00;98787.88;8329339;28;20110;-64
2022/01/04 18:15:47;;;;;;;2.65;1.30;;;;;;;8.22;100.00;98790.50;8347698;28;20048;-64
2022/01/04 18:19:48;;;;;;;2.80;0.90;;;;;;;8.18;100.00;98784.66;8348496;28;20127;-64
2022/01/04 18:23:48;;;;;;;2.30;1.13;;;;;;;8.13;100.00;98796.91;8327743;28;20041;-64
2022/01/04 18:27:52;;;;;;;2.85;1.20;;;;;;;8.23;100.00;98808.41;8324479;28;20704;-64
2022/01/04 18:31:53;;;;;;;6.57;1.60;;;;;;;8.21;100.00;98807.69;8334720;28;20134;-64
2022/01/04 18:35:53;;;;;;;5.40;2.60;;;;;;;8.12;100.00;98806.00;8346179;28;20105;-64
2022/01/04 18:39:54;;;;;;;3.83;1.88;;;;;;;8.12;100.00;98806.00;8328879;28;20603;-63
2022/01/04 18:43:55;;;;;;;5.82;2.33;;;;;;;8.09;100.00;98799.94;8332591;28;20140;-63
2022/01/04 18:47:55;;;;;;;3.97;1.80;;;;;;;8.16;100.00;98807.34;8332389;28;20098;-63
2022/01/04 18:51:56;;;;;;;1.98;1.40;;;;;;;8.10;100.00;98803.47;8342944;28;20048;-63
2022/01/04 18:55:56;;;;;;;3.03;1.60;;;;;;;8.12;100.00;98800.59;8322107;28;20045;-63
2022/01/04 18:59:57;;;;;;;2.72;1.75;;;;;;;8.05;100.00;98816.56;8322789;28;20119;-63
2022/01/04 19:03:59;;;;;;;4.18;1.52;;;;;;;8.03;100.00;98814.03;8339045;28;20179;-63
2022/01/04 19:08:01;;;;;;;2.63;1.30;;;;;;;7.96;100.00;98801.41;8320861;28;20057;-63
2022/01/04 19:12:02;;;;;;;1.65;1.20;;;;;;;7.93;100.00;98802.59;8341284;28;20041;-63
2022/01/04 19:16:03;;;;;;;1.52;1.20;;;;;;;7.93;100.00;98797.22;8324772;28;20106;-63